createdAt,value
2022-09-24T00:02:01.354Z,16.60
2022-09-24T00:04:28.235Z,16.60
2022-09-24T00:06:55.094Z,16.60
2022-09-24T00:09:22.384Z,16.70
2022-09-24T00:11:49.859Z,16.70
2022-09-24T00:14:17.184Z,16.60
2022-09-24T00:16:47.406Z,16.60
2022-09-24T00:19:16.574Z,16.60
2022-09-24T00:21:43.652Z,16.60
2022-09-24T00:24:33.229Z,16.60
2022-09-24T00:27:00.575Z,16.60
2022-09-24T00:29:27.522Z,16.60
2022-09-24T00:31:54.371Z,16.60
2022-09-24T00:34:21.672Z,16.60
2022-09-24T00:36:48.716Z,16.60
2022-09-24T00:39:15.855Z,16.70
2022-09-24T00:41:48.078Z,16.70
2022-09-24T00:44:33.608Z,16.60
2022-09-24T00:47:00.590Z,16.70
2022-09-24T00:49:27.480Z,16.60
2022-09-24T00:51:57.804Z,16.50
2022-09-24T00:54:28.506Z,16.50
2022-09-24T00:56:57.105Z,16.50
2022-09-24T00:59:24.766Z,16.60
2022-09-24T01:01:53.983Z,16.50
2022-09-24T01:04:21.573Z,16.60
2022-09-24T01:06:49.336Z,16.50
2022-09-24T01:09:17.405Z,16.50
2022-09-24T01:11:50.414Z,16.50
2022-09-24T01:14:20.183Z,16.50
2022-09-24T01:16:56.335Z,16.50
2022-09-24T01:19:35.515Z,16.60
2022-09-24T01:22:11.343Z,16.60
2022-09-24T01:24:40.489Z,16.60
2022-09-24T01:27:19.895Z,16.60
2022-09-24T01:29:46.727Z,16.60
2022-09-24T01:32:20.298Z,16.60
2022-09-24T01:34:51.975Z,16.60
2022-09-24T01:37:22.265Z,16.60
2022-09-24T01:39:50.243Z,16.60
2022-09-24T01:42:18.497Z,16.60
2022-09-24T01:44:48.057Z,16.70
2022-09-24T01:47:18.795Z,16.70
2022-09-24T01:49:46.083Z,16.60
2022-09-24T01:52:15.138Z,16.60
2022-09-24T01:54:43.071Z,16.60
2022-09-24T01:57:09.926Z,16.60
2022-09-24T01:59:40.543Z,16.50
2022-09-24T02:02:07.350Z,16.50
2022-09-24T02:04:38.037Z,16.60
2022-09-24T02:07:07.252Z,16.50
2022-09-24T02:09:38.391Z,16.50
2022-09-24T02:12:08.516Z,16.50
2022-09-24T02:14:38.630Z,16.60
2022-09-24T02:17:07.004Z,16.60
2022-09-24T02:19:36.344Z,16.60
2022-09-24T02:22:25.975Z,16.50
2022-09-24T02:24:58.098Z,16.50
2022-09-24T02:27:29.195Z,16.40
2022-09-24T02:29:59.908Z,16.40
2022-09-24T02:32:28.079Z,16.40
2022-09-24T02:35:07.199Z,16.50
2022-09-24T02:37:35.660Z,16.50
2022-09-24T02:40:04.842Z,16.50
2022-09-24T02:42:31.801Z,16.50
2022-09-24T02:45:00.668Z,16.50
2022-09-24T02:47:29.033Z,16.50
2022-09-24T02:49:56.345Z,16.50
2022-09-24T02:52:23.373Z,16.60
2022-09-24T02:54:50.656Z,16.60
2022-09-24T02:57:19.605Z,16.60
2022-09-24T02:59:46.663Z,16.60
2022-09-24T03:02:13.720Z,16.50
2022-09-24T03:04:40.770Z,16.50
2022-09-24T03:07:09.743Z,16.60
2022-09-24T03:09:39.743Z,16.60
2022-09-24T03:12:06.792Z,16.60
2022-09-24T03:14:33.615Z,16.60
2022-09-24T03:17:00.460Z,16.60
2022-09-24T03:19:27.300Z,16.60
2022-09-24T03:21:54.198Z,16.60
2022-09-24T03:24:21.169Z,16.60
2022-09-24T03:26:48.084Z,16.50
2022-09-24T03:29:14.865Z,16.50
2022-09-24T03:31:41.686Z,16.50
2022-09-24T03:34:08.629Z,16.50
2022-09-24T03:36:35.642Z,16.40
2022-09-24T03:39:22.531Z,16.40
2022-09-24T03:41:49.402Z,16.40
2022-09-24T03:44:16.209Z,16.40
2022-09-24T03:46:43.051Z,16.40
2022-09-24T03:49:09.904Z,16.40
2022-09-24T03:51:36.756Z,16.30
2022-09-24T03:54:03.697Z,16.30
2022-09-24T03:56:30.495Z,16.30
2022-09-24T03:58:58.628Z,16.30
2022-09-24T04:01:25.506Z,16.40
2022-09-24T04:03:53.214Z,16.40
2022-09-24T04:06:25.497Z,16.40
2022-09-24T04:08:53.027Z,16.40
2022-09-24T04:11:25.080Z,16.40
2022-09-24T04:13:54.288Z,16.40
2022-09-24T04:16:21.177Z,16.40
2022-09-24T04:18:49.017Z,16.40
2022-09-24T04:21:15.963Z,16.40
2022-09-24T04:23:42.897Z,16.30
2022-09-24T04:26:10.141Z,16.30
2022-09-24T04:28:36.891Z,16.30
2022-09-24T04:31:03.757Z,16.30
2022-09-24T04:33:30.790Z,16.30
2022-09-24T04:35:57.628Z,16.30
2022-09-24T04:38:24.413Z,16.30
2022-09-24T04:40:51.299Z,16.30
2022-09-24T04:43:19.421Z,16.20
2022-09-24T04:45:46.812Z,16.20
2022-09-24T04:48:13.907Z,16.30
2022-09-24T04:50:51.145Z,16.30
2022-09-24T04:53:20.305Z,16.30
2022-09-24T04:55:47.462Z,16.40
2022-09-24T04:58:14.375Z,16.40
2022-09-24T05:00:42.225Z,16.40
2022-09-24T05:03:09.178Z,16.50
2022-09-24T05:05:36.923Z,16.40
2022-09-24T05:08:04.926Z,16.40
2022-09-24T05:10:33.197Z,16.40
2022-09-24T05:13:00.738Z,16.30
2022-09-24T05:15:28.796Z,16.40
2022-09-24T05:17:55.663Z,16.30
2022-09-24T05:20:22.604Z,16.40
2022-09-24T05:22:49.770Z,16.40
2022-09-24T05:25:17.462Z,16.40
2022-09-24T05:27:48.316Z,16.40
2022-09-24T05:30:15.825Z,16.50
2022-09-24T05:32:43.166Z,16.60
2022-09-24T05:35:10.062Z,16.50
2022-09-24T05:37:38.363Z,16.60
2022-09-24T05:40:24.563Z,16.60
2022-09-24T05:42:52.046Z,16.60
2022-09-24T05:45:18.948Z,16.70
2022-09-24T05:47:46.708Z,16.70
2022-09-24T05:50:13.808Z,16.70
2022-09-24T05:52:41.016Z,16.70
2022-09-24T05:55:08.271Z,16.70
2022-09-24T05:57:35.030Z,16.80
2022-09-24T06:00:01.970Z,16.80
2022-09-24T06:02:38.971Z,16.80
2022-09-24T06:05:06.230Z,16.90
2022-09-24T06:07:33.569Z,16.90
2022-09-24T06:10:01.013Z,17.00
2022-09-24T06:12:28.047Z,17.00
2022-09-24T06:14:57.686Z,17.00
2022-09-24T06:17:25.738Z,17.10
2022-09-24T06:19:53.045Z,17.20
2022-09-24T06:22:25.021Z,17.30
2022-09-24T06:24:54.636Z,17.40
2022-09-24T06:27:21.406Z,17.40
2022-09-24T06:29:48.169Z,17.40
2022-09-24T06:32:14.953Z,17.50
2022-09-24T06:34:44.573Z,17.50
2022-09-24T06:37:29.127Z,17.60
2022-09-24T06:40:06.226Z,17.70
2022-09-24T06:42:35.421Z,17.70
2022-09-24T06:48:23.914Z,17.80
2022-09-24T06:50:55.598Z,17.80
2022-09-24T06:53:30.535Z,17.80
2022-09-24T06:55:59.700Z,17.80
2022-09-24T06:58:36.356Z,17.90
2022-09-24T07:04:47.761Z,18.00
2022-09-24T07:07:49.857Z,18.10
2022-09-24T07:14:14.132Z,18.30
2022-09-24T08:01:47.051Z,18.80
2022-09-24T08:04:15.290Z,18.80
2022-09-24T08:06:47.397Z,18.90
2022-09-24T08:09:15.687Z,19.00
2022-09-24T08:17:52.344Z,19.20
2022-09-24T08:20:22.077Z,19.20
2022-09-24T08:22:49.041Z,19.20
2022-09-24T08:25:17.497Z,19.10
2022-09-24T08:27:44.481Z,19.10
2022-09-24T08:33:24.417Z,19.00
2022-09-24T08:35:51.911Z,19.10
2022-09-24T08:38:21.106Z,19.10
2022-09-24T08:40:58.501Z,19.10
2022-09-24T08:47:12.296Z,19.20
2022-09-24T08:49:49.568Z,19.30
2022-09-24T08:52:43.217Z,19.30
2022-09-24T08:55:38.470Z,19.40
2022-09-24T08:58:21.674Z,19.50
2022-09-24T09:00:56.615Z,19.50
2022-09-24T09:03:41.169Z,19.60
2022-09-24T09:06:31.031Z,19.70
2022-09-24T09:11:44.299Z,19.70
2022-09-24T09:14:14.922Z,19.70
2022-09-24T09:16:44.870Z,19.70
2022-09-24T09:19:28.666Z,19.80
2022-09-24T09:22:07.404Z,19.80
2022-09-24T09:25:02.775Z,19.90
2022-09-24T09:27:34.907Z,20.00
2022-09-24T09:30:13.366Z,20.00
2022-09-24T09:32:48.110Z,19.90
2022-09-24T09:35:32.700Z,20.00
2022-09-24T09:38:18.326Z,19.80
2022-09-24T09:41:00.165Z,19.80
2022-09-24T09:43:28.726Z,19.70
2022-09-24T09:46:17.061Z,19.50
2022-09-24T09:48:54.764Z,19.40
2022-09-24T09:51:27.960Z,19.30
2022-09-24T09:53:57.073Z,19.20
2022-09-24T09:56:33.916Z,19.20
2022-09-24T09:59:18.746Z,19.10
2022-09-24T10:01:49.933Z,19.00
2022-09-24T10:04:39.405Z,18.90
2022-09-24T10:07:11.102Z,18.90
2022-09-24T10:09:39.468Z,18.90
2022-09-24T10:12:24.237Z,18.80
2022-09-24T10:14:57.553Z,18.80
2022-09-24T10:17:26.348Z,18.80
2022-09-24T10:19:53.388Z,18.80
2022-09-24T10:22:21.273Z,18.80
2022-09-24T10:24:48.788Z,18.80
2022-09-24T10:27:35.817Z,18.80
2022-09-24T10:30:30.126Z,18.70
2022-09-24T10:33:00.286Z,18.80
2022-09-24T10:35:31.309Z,18.80
2022-09-24T10:37:59.410Z,18.80
2022-09-24T10:40:39.741Z,18.80
2022-09-24T10:43:13.610Z,18.80
2022-09-24T10:45:47.423Z,18.80
2022-09-24T10:48:19.072Z,18.90
2022-09-24T10:50:58.811Z,19.00
2022-09-24T10:53:28.681Z,19.20
2022-09-24T10:56:03.947Z,19.30
2022-09-24T10:58:51.597Z,19.40
2022-09-24T11:01:22.572Z,19.40
2022-09-24T11:04:06.834Z,19.40
2022-09-24T11:06:40.433Z,19.40
2022-09-24T11:09:25.575Z,19.50
2022-09-24T11:12:15.478Z,19.60
2022-09-24T11:15:04.182Z,19.60
2022-09-24T11:17:33.385Z,19.60
2022-09-24T11:20:00.848Z,19.60
2022-09-24T11:22:46.522Z,19.60
2022-09-24T11:25:16.307Z,19.70
2022-09-24T11:28:02.006Z,19.70
2022-09-24T11:30:35.242Z,19.70
2022-09-24T11:33:20.677Z,19.80
2022-09-24T11:35:58.099Z,19.80
2022-09-24T11:38:28.431Z,19.90
2022-09-24T11:41:11.410Z,19.90
2022-09-24T11:43:41.272Z,20.00
2022-09-24T11:46:09.470Z,20.10
2022-09-24T11:48:45.487Z,20.00
2022-09-24T11:51:12.273Z,19.90
2022-09-24T11:53:39.064Z,19.80
2022-09-24T11:56:13.274Z,19.80
2022-09-24T11:58:43.495Z,19.80
2022-09-24T12:01:13.332Z,19.80
2022-09-24T12:03:44.569Z,19.80
2022-09-24T12:06:20.213Z,19.70
2022-09-24T12:08:50.371Z,19.70
2022-09-24T12:11:23.866Z,19.60
2022-09-24T12:13:58.608Z,19.60
2022-09-24T12:16:45.660Z,19.70
2022-09-24T12:22:21.026Z,19.70
2022-09-24T12:25:02.176Z,19.80
2022-09-24T12:30:59.693Z,19.80
2022-09-24T12:33:49.136Z,19.80
2022-09-24T12:36:17.181Z,19.80
2022-09-24T12:38:50.698Z,19.80
2022-09-24T12:41:49.852Z,19.80
2022-09-24T12:50:23.371Z,19.80
2022-09-24T12:52:50.901Z,19.90
2022-09-24T12:55:28.813Z,19.90
2022-09-24T12:57:58.481Z,19.90
2022-09-24T13:00:49.127Z,19.90
2022-09-24T13:03:47.143Z,19.90
2022-09-24T13:06:34.825Z,19.90
2022-09-24T13:09:03.266Z,19.90
2022-09-24T13:11:32.234Z,19.90
2022-09-24T13:14:11.543Z,20.00
2022-09-24T13:16:53.044Z,19.90
2022-09-24T13:19:41.644Z,19.90
2022-09-24T13:22:23.227Z,19.90
2022-09-24T13:24:54.190Z,19.90
2022-09-24T13:27:30.412Z,19.90
2022-09-24T13:30:23.637Z,20.00
2022-09-24T13:33:11.457Z,20.00
2022-09-24T13:35:50.590Z,20.00
2022-09-24T13:38:32.971Z,19.90
2022-09-24T13:41:05.084Z,19.90
2022-09-24T13:43:49.387Z,19.90
2022-09-24T13:46:22.017Z,19.80
2022-09-24T13:48:56.113Z,19.80
2022-09-24T13:51:30.791Z,19.80
2022-09-24T13:54:00.686Z,19.80
2022-09-24T13:56:27.751Z,19.70
2022-09-24T13:59:07.626Z,19.60
2022-09-24T14:01:37.844Z,19.60
2022-09-24T14:04:07.479Z,19.50
2022-09-24T14:06:39.235Z,19.50
2022-09-24T14:09:37.228Z,19.50
2022-09-24T14:12:23.052Z,19.50
2022-09-24T14:14:55.132Z,19.50
2022-09-24T14:17:22.108Z,19.50
2022-09-24T14:19:54.137Z,19.60
2022-09-24T14:22:23.649Z,19.50
2022-09-24T14:24:56.791Z,19.60
2022-09-24T14:27:24.486Z,19.60
2022-09-24T14:30:00.500Z,19.50
2022-09-24T14:32:30.980Z,19.60
2022-09-24T14:34:59.329Z,19.50
2022-09-24T14:37:28.277Z,19.50
2022-09-24T14:40:00.785Z,19.60
2022-09-24T14:42:38.044Z,19.60
2022-09-24T14:50:57.938Z,19.50
2022-09-24T14:53:35.991Z,19.60
2022-09-24T14:56:26.353Z,19.50
2022-09-24T14:58:53.375Z,19.40
2022-09-24T15:01:35.858Z,19.40
2022-09-24T15:04:07.903Z,19.40
2022-09-24T15:06:37.981Z,19.40
2022-09-24T15:09:06.891Z,19.30
2022-09-24T15:11:37.710Z,19.30
2022-09-24T15:14:20.149Z,19.30
2022-09-24T15:16:47.710Z,19.20
2022-09-24T15:19:14.566Z,19.20
2022-09-24T15:21:42.131Z,19.20
2022-09-24T15:24:10.065Z,19.30
2022-09-24T15:26:39.677Z,19.30
2022-09-24T15:29:07.064Z,19.20
2022-09-24T15:31:34.112Z,19.20
2022-09-24T15:34:01.060Z,19.10
2022-09-24T15:36:28.059Z,19.10
2022-09-24T15:39:00.533Z,19.10
2022-09-24T15:41:27.551Z,19.00
2022-09-24T15:43:58.769Z,19.00
2022-09-24T15:46:26.222Z,19.00
2022-09-24T15:48:55.477Z,18.90
2022-09-24T15:51:22.707Z,18.90
2022-09-24T15:53:50.169Z,18.80
2022-09-24T15:56:17.059Z,18.70
2022-09-24T15:58:43.881Z,18.60
2022-09-24T16:01:16.122Z,18.50
2022-09-24T16:03:44.390Z,18.50
2022-09-24T16:06:12.308Z,18.50
2022-09-24T16:08:39.229Z,18.40
2022-09-24T16:11:09.050Z,18.30
2022-09-24T16:13:51.436Z,18.30
2022-09-24T16:16:18.330Z,18.30
2022-09-24T16:18:45.428Z,18.30
2022-09-24T16:21:12.413Z,18.20
2022-09-24T16:23:39.347Z,18.20
2022-09-24T16:29:30.784Z,18.10
2022-09-24T16:32:02.092Z,18.10
2022-09-24T16:34:29.179Z,18.10
2022-09-24T16:36:56.197Z,18.10
2022-09-24T16:39:23.076Z,18.00
2022-09-24T16:41:50.485Z,18.00
2022-09-24T16:44:17.842Z,18.00
2022-09-24T16:46:45.066Z,18.00
2022-09-24T16:49:12.284Z,17.90
2022-09-24T16:51:39.336Z,18.00
2022-09-24T16:54:08.392Z,17.90
2022-09-24T16:56:35.354Z,18.00
2022-09-24T16:59:02.392Z,17.90
2022-09-24T17:01:29.368Z,17.90
2022-09-24T17:03:56.945Z,17.90
2022-09-24T17:06:27.226Z,17.80
2022-09-24T17:09:12.729Z,17.80
2022-09-24T17:11:40.567Z,17.80
2022-09-24T17:14:08.465Z,17.80
2022-09-24T17:16:35.408Z,17.80
2022-09-24T17:19:02.355Z,17.70
2022-09-24T17:21:54.435Z,17.70
2022-09-24T17:24:21.997Z,17.70
2022-09-24T17:26:49.489Z,17.70
2022-09-24T17:29:20.553Z,17.60
2022-09-24T17:31:47.742Z,17.60
2022-09-24T17:34:15.210Z,17.60
2022-09-24T17:36:43.013Z,17.60
2022-09-24T17:39:11.724Z,17.60
2022-09-24T17:41:38.933Z,17.60
2022-09-24T17:44:06.818Z,17.60
2022-09-24T17:46:36.100Z,17.60
2022-09-24T17:49:15.145Z,17.70
2022-09-24T17:55:50.059Z,17.70
2022-09-24T17:58:29.022Z,17.70
2022-09-24T18:01:08.875Z,17.70
2022-09-24T18:04:27.601Z,17.70
2022-09-24T18:06:58.773Z,17.60
2022-09-24T18:09:26.068Z,17.60
2022-09-24T18:11:53.862Z,17.60
2022-09-24T18:14:30.170Z,17.60
2022-09-24T18:16:57.680Z,17.60
2022-09-24T18:19:26.294Z,17.60
2022-09-24T18:21:56.381Z,17.50
2022-09-24T18:24:25.609Z,17.50
2022-09-24T18:26:52.767Z,17.40
2022-09-24T18:29:28.976Z,17.40
2022-09-24T18:31:56.558Z,17.30
2022-09-24T18:34:25.299Z,17.40
2022-09-24T18:36:52.571Z,17.30
2022-09-24T18:39:24.978Z,17.20
2022-09-24T18:41:55.046Z,17.20
2022-09-24T18:47:45.166Z,17.10
2022-09-24T18:50:17.883Z,17.10
2022-09-24T18:53:33.952Z,17.00
2022-09-24T18:59:40.758Z,16.80
2022-09-24T19:05:08.417Z,16.80
2022-09-24T19:07:45.296Z,16.80
2022-09-24T19:10:25.838Z,16.80
2022-09-24T19:12:56.707Z,16.80
2022-09-24T19:21:57.408Z,16.70
2022-09-24T19:24:31.489Z,16.60
2022-09-24T19:32:58.481Z,16.70
2022-09-24T19:35:30.313Z,16.70
2022-09-24T19:38:09.450Z,16.70
2022-09-24T19:40:48.185Z,16.60
2022-09-24T19:43:20.491Z,16.60
2022-09-24T19:46:01.351Z,16.60
2022-09-24T19:48:35.433Z,16.60
2022-09-24T19:51:35.464Z,16.60
2022-09-24T19:54:14.948Z,16.50
2022-09-24T19:56:45.532Z,16.40
2022-09-24T20:04:52.868Z,16.40
2022-09-24T20:07:52.346Z,16.40
2022-09-24T20:10:37.637Z,16.40
2022-09-24T20:13:52.368Z,16.50
2022-09-24T20:16:30.486Z,16.50
2022-09-24T20:19:12.441Z,16.40
2022-09-24T20:21:46.510Z,16.40
2022-09-24T20:24:20.280Z,16.30
2022-09-24T20:27:13.322Z,16.40
2022-09-24T20:30:09.714Z,16.40
2022-09-24T20:35:59.441Z,16.40
2022-09-24T20:38:33.708Z,16.40
2022-09-24T20:41:08.499Z,16.40
2022-09-24T20:43:43.765Z,16.40
2022-09-24T20:49:10.419Z,16.20
2022-09-24T20:51:44.416Z,16.20
2022-09-24T20:54:12.585Z,16.30
2022-09-24T20:56:40.250Z,16.30
2022-09-24T20:59:17.486Z,16.30
2022-09-24T21:04:55.184Z,16.30
2022-09-24T21:08:08.650Z,16.30
2022-09-24T22:14:03.582Z,16.10
2022-09-24T22:16:35.157Z,16.10
2022-09-24T22:19:08.805Z,16.10
2022-09-24T22:21:36.536Z,16.10
2022-09-24T22:24:05.484Z,16.10
2022-09-24T22:26:33.905Z,16.10
2022-09-24T22:29:00.843Z,16.10
2022-09-24T22:31:28.895Z,16.10
2022-09-24T22:34:16.896Z,16.10
2022-09-24T22:36:44.933Z,16.10
2022-09-24T22:39:12.285Z,16.20
2022-09-24T22:41:40.167Z,16.20
2022-09-24T22:44:07.960Z,16.20
2022-09-24T22:46:39.802Z,16.20
2022-09-24T22:49:08.911Z,16.20
2022-09-24T22:51:39.564Z,16.10
2022-09-24T22:54:07.319Z,16.20
2022-09-24T22:56:35.396Z,16.10
2022-09-24T22:59:02.543Z,16.10
2022-09-24T23:01:31.602Z,16.10
2022-09-24T23:03:59.451Z,16.00
2022-09-24T23:06:26.207Z,16.00
2022-09-24T23:08:53.808Z,16.00
2022-09-24T23:11:21.904Z,16.00
2022-09-24T23:13:52.581Z,15.90
2022-09-24T23:16:20.915Z,15.90
2022-09-24T23:18:48.333Z,15.90
2022-09-24T23:21:17.177Z,15.90
2022-09-24T23:23:44.478Z,15.80
2022-09-24T23:26:16.456Z,15.90
2022-09-24T23:28:44.402Z,15.90
2022-09-24T23:31:12.500Z,15.80
2022-09-24T23:33:39.626Z,15.80
2022-09-24T23:36:07.637Z,15.80
2022-09-24T23:38:34.627Z,15.80
2022-09-24T23:41:02.168Z,15.80
2022-09-24T23:43:29.598Z,15.70
2022-09-24T23:45:56.783Z,15.70
2022-09-24T23:48:23.797Z,15.80
2022-09-24T23:50:51.155Z,15.80
2022-09-24T23:53:24.384Z,15.80
2022-09-24T23:55:51.495Z,15.80
2022-09-24T23:58:20.090Z,15.80
